Time;durP1;ratioP1;P1;durP2;ratioP2;P2;SDS_P1;SDS_P2;PMS_P1;PMS_P2;Temp;Humidity;BMP_temperature;BMP_pressure;BME280_temperature;BME280_humidity;BME280_pressure;Samples;Min_cycle;Max_cycle;Signal;HPM_P1;HPM_P2
2022/08/17 00:00:40;;;;;;;12.10;9.93;;;23.10;99.90;;;;;;5089306;28;20569;-45
2022/08/17 00:03:18;;;;;;;10.53;9.50;;;23.10;99.90;;;;;;5089950;28;20931;-44
2022/08/17 00:05:47;;;;;;;10.10;9.37;;;23.00;99.90;;;;;;5089054;28;20499;-45
2022/08/17 00:08:15;;;;;;;11.50;10.40;;;23.00;99.90;;;;;;5087608;28;20422;-43
2022/08/17 00:10:43;;;;;;;10.13;9.23;;;22.90;99.90;;;;;;5089212;28;20814;-47
2022/08/17 00:13:13;;;;;;;10.67;9.70;;;22.80;99.90;;;;;;5089612;28;20423;-49
2022/08/17 00:15:38;;;;;;;10.23;9.23;;;22.70;99.90;;;;;;5089053;28;20928;-44
2022/08/17 00:18:05;;;;;;;10.63;9.73;;;22.70;99.90;;;;;;5088066;28;20429;-46
2022/08/17 00:20:31;;;;;;;10.87;9.70;;;22.70;99.90;;;;;;5087942;28;20792;-45
2022/08/17 00:23:12;;;;;;;9.70;8.80;;;22.70;99.90;;;;;;5088979;28;20466;-44
2022/08/17 00:25:40;;;;;;;13.13;10.57;;;22.60;99.90;;;;;;5088235;28;20176;-46
2022/08/17 00:28:06;;;;;;;10.80;10.00;;;22.60;99.90;;;;;;5088331;28;20791;-45
2022/08/17 00:30:34;;;;;;;10.77;9.77;;;22.60;99.90;;;;;;5088565;28;20422;-46
2022/08/17 00:33:06;;;;;;;11.97;10.97;;;22.70;99.90;;;;;;5088964;28;20838;-45
2022/08/17 00:35:33;;;;;;;11.70;10.70;;;22.70;99.90;;;;;;5089053;28;20414;-43
2022/08/17 00:37:59;;;;;;;10.77;9.87;;;22.70;99.90;;;;;;5086723;28;20456;-44
2022/08/17 00:40:24;;;;;;;11.60;10.47;;;22.70;99.90;;;;;;5088655;28;20928;-43
2022/08/17 00:42:52;;;;;;;11.83;10.63;;;22.70;99.90;;;;;;5088305;28;20261;-47
2022/08/17 00:45:19;;;;;;;13.10;9.70;;;22.70;99.90;;;;;;5088597;28;20242;-44
2022/08/17 00:47:45;;;;;;;11.47;10.47;;;22.70;99.90;;;;;;5087834;28;20746;-45
2022/08/17 00:50:14;;;;;;;12.33;11.13;;;22.70;99.90;;;;;;5088603;28;20449;-43
2022/08/17 00:52:52;;;;;;;13.10;11.90;;;22.70;99.90;;;;;;5088267;28;20422;-43
2022/08/17 00:55:18;;;;;;;12.80;11.50;;;22.70;99.90;;;;;;5088465;28;20525;-43
2022/08/17 00:57:49;;;;;;;12.00;10.90;;;22.60;99.90;;;;;;5087505;28;20418;-46
2022/08/17 01:00:20;;;;;;;12.87;11.57;;;22.60;99.90;;;;;;5087299;28;20508;-46
2022/08/17 01:02:47;;;;;;;12.83;11.50;;;22.50;99.90;;;;;;5088462;28;20511;-43
2022/08/17 01:05:19;;;;;;;13.93;12.53;;;22.40;99.90;;;;;;5088453;28;20444;-47
2022/08/17 01:07:46;;;;;;;13.57;12.37;;;22.30;99.90;;;;;;5087831;28;20488;-43
2022/08/17 01:10:14;;;;;;;13.37;12.00;;;22.20;99.90;;;;;;5088066;28;20825;-44
2022/08/17 01:12:39;;;;;;;13.40;12.00;;;22.10;99.90;;;;;;5088404;28;20454;-43
2022/08/17 01:15:06;;;;;;;13.97;12.60;;;22.20;99.90;;;;;;5088105;28;20461;-46
2022/08/17 01:17:32;;;;;;;13.40;12.20;;;22.20;99.90;;;;;;5087636;28;20200;-46
2022/08/17 01:19:58;;;;;;;12.00;10.93;;;22.20;99.90;;;;;;5087098;28;20438;-46
2022/08/17 01:22:24;;;;;;;12.10;11.00;;;22.20;99.90;;;;;;5088228;28;20826;-46
2022/08/17 01:24:56;;;;;;;13.50;11.57;;;22.10;99.90;;;;;;5087809;28;20649;-43
2022/08/17 01:27:23;;;;;;;13.73;12.33;;;22.10;99.90;;;;;;5087782;28;20422;-47
2022/08/17 01:29:55;;;;;;;13.00;11.90;;;22.00;99.90;;;;;;5088044;28;20426;-45
2022/08/17 01:32:21;;;;;;;13.10;11.90;;;22.00;99.90;;;;;;5088214;28;20453;-45
2022/08/17 01:34:48;;;;;;;13.13;11.63;;;22.10;99.90;;;;;;5087963;28;21363;-48
2022/08/17 01:37:16;;;;;;;13.80;11.83;;;22.00;99.90;;;;;;5090209;28;20229;-44
2022/08/17 01:39:50;;;;;;;14.03;12.60;;;22.00;99.90;;;;;;5091866;28;20415;-43
2022/08/17 01:42:24;;;;;;;13.83;12.17;;;22.10;99.90;;;;;;5092093;28;20543;-45
2022/08/17 01:44:55;;;;;;;12.67;11.47;;;22.00;99.90;;;;;;5092101;28;20417;-49
2022/08/17 01:47:22;;;;;;;11.83;10.70;;;22.10;99.90;;;;;;5091403;28;20410;-50
2022/08/17 01:49:47;;;;;;;11.73;10.60;;;22.00;99.90;;;;;;5091695;28;21235;-43
2022/08/17 01:52:14;;;;;;;12.80;11.30;;;22.00;99.90;;;;;;5091918;28;20422;-45
2022/08/17 01:54:43;;;;;;;12.73;11.53;;;22.00;99.90;;;;;;5092017;28;20402;-47
2022/08/17 01:57:10;;;;;;;12.20;11.03;;;21.90;99.90;;;;;;5091088;28;20446;-45
2022/08/17 01:59:36;;;;;;;13.13;11.70;;;21.90;99.90;;;;;;5091804;28;20467;-45
2022/08/17 02:02:03;;;;;;;12.90;11.70;;;21.90;99.90;;;;;;5091516;28;20458;-44
2022/08/17 02:04:29;;;;;;;12.83;11.63;;;22.00;99.90;;;;;;5091738;28;20827;-44
2022/08/17 02:06:55;;;;;;;11.90;10.80;;;22.00;99.90;;;;;;5091177;28;20431;-48
2022/08/17 02:09:23;;;;;;;11.30;10.40;;;21.90;99.90;;;;;;5091883;28;20449;-46
2022/08/17 02:11:49;;;;;;;11.97;11.07;;;21.90;99.90;;;;;;5090246;28;20200;-49
2022/08/17 02:14:14;;;;;;;12.07;10.87;;;21.90;99.90;;;;;;5091563;28;20536;-47
2022/08/17 02:16:41;;;;;;;12.20;11.10;;;21.90;99.90;;;;;;5090530;28;20216;-47
2022/08/17 02:19:12;;;;;;;12.47;11.23;;;21.90;99.90;;;;;;5091467;28;20430;-44
2022/08/17 02:21:40;;;;;;;12.47;11.27;;;21.90;99.90;;;;;;5090108;28;20204;-46
2022/08/17 02:24:09;;;;;;;11.80;10.70;;;21.90;99.90;;;;;;5091583;28;20423;-44
2022/08/17 02:26:35;;;;;;;12.30;11.20;;;21.80;99.90;;;;;;5090453;28;20438;-45
2022/08/17 02:29:02;;;;;;;12.20;11.00;;;21.90;99.90;;;;;;5091142;28;20449;-45
2022/08/17 02:31:29;;;;;;;12.13;10.93;;;21.80;99.90;;;;;;5091161;28;20186;-46
2022/08/17 02:33:55;;;;;;;11.60;10.50;;;21.70;99.90;;;;;;5091280;28;20840;-44
2022/08/17 02:36:22;;;;;;;11.37;10.43;;;21.70;99.90;;;;;;5091252;28;20429;-44
2022/08/17 02:38:48;;;;;;;11.43;10.53;;;21.70;99.90;;;;;;5090533;28;20429;-46
2022/08/17 02:41:13;;;;;;;11.23;10.10;;;21.70;99.90;;;;;;5091167;28;20458;-43
2022/08/17 02:43:39;;;;;;;11.60;10.30;;;21.80;99.90;;;;;;5090894;28;20192;-45
2022/08/17 02:46:05;;;;;;;11.83;10.63;;;21.90;99.90;;;;;;5090626;28;20188;-45
2022/08/17 02:48:30;;;;;;;11.37;10.37;;;21.90;99.90;;;;;;5089548;28;20184;-43
2022/08/17 02:50:56;;;;;;;11.80;10.80;;;21.90;99.90;;;;;;5090925;28;20600;-44
2022/08/17 02:53:22;;;;;;;12.47;11.23;;;21.90;99.90;;;;;;5090666;28;20188;-45
2022/08/17 02:55:47;;;;;;;11.63;10.63;;;21.90;99.90;;;;;;5090882;28;20199;-46
2022/08/17 02:58:13;;;;;;;11.43;10.27;;;21.80;99.90;;;;;;5089879;28;20189;-46
2022/08/17 03:00:46;;;;;;;12.50;11.20;;;21.80;99.90;;;;;;5090180;28;20196;-43
2022/08/17 03:03:17;;;;;;;11.87;10.90;;;21.80;99.90;;;;;;5090462;28;20251;-46
2022/08/17 03:05:46;;;;;;;11.47;10.37;;;21.80;99.90;;;;;;5089242;28;20450;-46
2022/08/17 03:08:13;;;;;;;11.80;10.60;;;21.80;99.90;;;;;;5089797;28;20418;-43
2022/08/17 03:10:39;;;;;;;11.60;10.40;;;21.80;99.90;;;;;;5090292;28;20507;-46
2022/08/17 03:13:05;;;;;;;11.27;10.30;;;21.70;99.90;;;;;;5090502;28;20441;-45
2022/08/17 03:15:33;;;;;;;11.60;10.50;;;21.70;99.90;;;;;;5090460;28;20430;-46
2022/08/17 03:18:00;;;;;;;11.40;10.40;;;21.60;99.90;;;;;;5089888;28;20259;-50
2022/08/17 03:20:27;;;;;;;11.17;10.13;;;21.60;99.90;;;;;;5089434;28;20476;-44
2022/08/17 03:22:55;;;;;;;11.07;9.87;;;21.70;99.90;;;;;;5090217;28;20458;-46
2022/08/17 03:25:32;;;;;;;10.03;9.10;;;21.70;99.90;;;;;;5090080;28;20492;-44
2022/08/17 03:27:58;;;;;;;9.67;8.67;;;21.70;99.90;;;;;;5089894;28;20434;-46
2022/08/17 03:30:25;;;;;;;10.57;9.67;;;21.70;99.90;;;;;;5090249;28;20837;-45
2022/08/17 03:32:55;;;;;;;10.67;9.40;;;21.70;99.90;;;;;;5090243;28;20921;-46
2022/08/17 03:35:25;;;;;;;11.13;9.10;;;21.60;99.90;;;;;;5089985;28;20423;-47
2022/08/17 03:37:51;;;;;;;10.53;9.63;;;21.60;99.90;;;;;;5089637;28;20450;-44
2022/08/17 03:40:17;;;;;;;9.67;8.87;;;21.50;99.90;;;;;;5089749;28;20448;-44
2022/08/17 03:42:43;;;;;;;9.60;8.70;;;21.50;99.90;;;;;;5089802;28;20462;-47
2022/08/17 03:56:40;;;;;;;9.30;8.60;;;21.40;99.90;;;;;;5089731;28;20211;-45
2022/08/17 03:56:43;;;;;;;9.50;8.50;;;21.50;99.90;;;;;;5089295;28;20418;-44
2022/08/17 03:59:17;;;;;;;10.20;9.20;;;21.60;99.90;;;;;;5088804;28;20418;-44
2022/08/17 04:01:44;;;;;;;9.20;8.40;;;21.50;99.90;;;;;;5089167;28;20913;-46
2022/08/17 04:04:12;;;;;;;8.63;7.83;;;21.50;99.90;;;;;;5089824;28;20489;-46
2022/08/17 04:06:39;;;;;;;9.47;8.67;;;21.50;99.90;;;;;;5089031;28;20430;-46
2022/08/17 04:09:05;;;;;;;9.23;8.30;;;21.40;99.90;;;;;;5089302;28;20426;-45
2022/08/17 04:11:32;;;;;;;8.70;8.00;;;21.40;99.90;;;;;;5088782;28;20956;-46
2022/08/17 04:13:57;;;;;;;9.57;8.27;;;21.50;99.90;;;;;;5089561;28;20426;-46
2022/08/17 04:16:24;;;;;;;9.47;8.67;;;21.40;99.90;;;;;;5089155;28;20460;-45
2022/08/17 04:18:51;;;;;;;10.00;9.17;;;21.50;99.90;;;;;;5088603;28;20671;-47
2022/08/17 04:21:17;;;;;;;9.67;8.67;;;21.50;99.90;;;;;;5086751;28;21052;-46
2022/08/17 04:23:43;;;;;;;8.67;7.97;;;21.40;99.90;;;;;;5088857;28;20434;-44
2022/08/17 04:26:09;;;;;;;9.80;9.10;;;21.40;99.90;;;;;;5088846;28;20453;-44
2022/08/17 04:28:35;;;;;;;9.17;8.27;;;21.20;99.90;;;;;;5088294;28;20533;-44
2022/08/17 04:31:01;;;;;;;10.23;8.97;;;21.20;99.90;;;;;;5088901;28;20434;-45
2022/08/17 04:33:28;;;;;;;9.87;9.03;;;21.20;99.90;;;;;;5089223;28;20188;-44
2022/08/17 04:35:59;;;;;;;9.37;8.47;;;21.10;99.90;;;;;;5088748;28;20191;-48
2022/08/17 04:38:34;;;;;;;10.83;9.50;;;21.20;99.90;;;;;;5087749;28;20737;-46
2022/08/17 04:43:46;;;;;;;10.00;9.20;;;21.10;99.90;;;;;;5088825;28;20426;-45
2022/08/17 04:46:17;;;;;;;12.17;9.67;;;21.10;99.90;;;;;;5088987;28;20418;-44
2022/08/17 04:48:49;;;;;;;8.87;8.07;;;21.00;99.90;;;;;;5086608;28;20426;-43
2022/08/17 04:51:14;;;;;;;9.40;8.60;;;21.00;99.90;;;;;;5088671;28;20426;-44
2022/08/17 04:53:43;;;;;;;10.00;9.20;;;21.00;99.90;;;;;;5088586;28;20407;-47
2022/08/17 04:56:10;;;;;;;9.33;8.43;;;21.00;99.90;;;;;;5088793;28;20185;-46
2022/08/17 04:58:37;;;;;;;10.17;9.27;;;21.00;99.90;;;;;;5087845;28;20533;-46
2022/08/17 05:01:04;;;;;;;9.60;8.80;;;21.00;99.90;;;;;;5085335;28;20859;-46
2022/08/17 05:03:30;;;;;;;10.60;9.60;;;21.00;99.90;;;;;;5087963;28;20422;-46
2022/08/17 05:05:56;;;;;;;9.70;8.90;;;21.00;99.90;;;;;;5088204;28;20438;-46
2022/08/17 05:08:22;;;;;;;10.90;10.00;;;21.00;99.90;;;;;;5086788;28;20494;-45
2022/08/17 05:10:48;;;;;;;11.43;10.30;;;21.00;99.90;;;;;;5088291;28;20195;-48
2022/08/17 05:13:21;;;;;;;10.70;9.70;;;21.00;99.90;;;;;;5087187;28;20668;-47
2022/08/17 05:15:51;;;;;;;10.20;9.40;;;21.00;99.90;;;;;;5087994;28;20430;-46
2022/08/17 05:18:17;;;;;;;11.30;10.40;;;21.00;99.90;;;;;;5087877;28;20487;-43
2022/08/17 05:20:44;;;;;;;11.67;9.63;;;21.00;99.90;;;;;;5087429;28;20517;-42
2022/08/17 05:23:12;;;;;;;11.10;10.20;;;21.00;99.90;;;;;;5088431;28;20527;-44
2022/08/17 05:25:42;;;;;;;11.90;9.43;;;21.00;99.90;;;;;;5088246;28;20434;-43
2022/08/17 05:28:09;;;;;;;9.77;8.97;;;21.00;99.90;;;;;;5088040;28;20446;-43
2022/08/17 05:30:36;;;;;;;9.80;9.10;;;21.10;99.90;;;;;;5087704;28;20793;-48
2022/08/17 05:33:15;;;;;;;9.53;8.73;;;21.00;99.90;;;;;;5087013;28;20487;-48
2022/08/17 05:35:45;;;;;;;9.63;8.83;;;21.00;99.90;;;;;;5088010;28;20425;-44
2022/08/17 05:38:12;;;;;;;9.77;8.83;;;21.20;99.90;;;;;;5087182;28;20430;-45
2022/08/17 05:40:38;;;;;;;9.20;8.50;;;21.20;99.90;;;;;;5087677;28;20845;-45
2022/08/17 05:43:07;;;;;;;10.83;9.00;;;21.20;99.90;;;;;;5087758;28;20684;-45
2022/08/17 05:45:54;;;;;;;10.67;9.67;;;21.40;99.90;;;;;;5087894;28;20188;-46
2022/08/17 05:48:20;;;;;;;11.17;10.10;;;21.50;99.90;;;;;;5087160;28;20609;-48
2022/08/17 05:51:00;;;;;;;8.53;7.70;;;21.40;99.90;;;;;;5088283;28;20421;-45
2022/08/17 05:53:52;;;;;;;9.63;8.40;;;21.50;99.90;;;;;;5087904;28;20250;-45
2022/08/17 05:56:48;;;;;;;9.10;8.43;;;21.50;99.90;;;;;;5087908;28;20471;-44
2022/08/17 05:59:38;;;;;;;8.90;8.10;;;21.60;99.90;;;;;;5086877;28;20894;-43
2022/08/17 06:02:26;;;;;;;9.23;8.37;;;21.60;99.90;;;;;;5087805;28;20469;-45
2022/08/17 06:05:30;;;;;;;8.97;8.07;;;21.70;99.90;;;;;;5082935;28;20438;-45
2022/08/17 06:08:19;;;;;;;8.67;7.97;;;21.70;99.90;;;;;;5080318;28;20461;-45
2022/08/17 06:10:51;;;;;;;9.40;8.50;;;21.80;99.90;;;;;;5088016;28;20424;-46
2022/08/17 06:13:37;;;;;;;10.70;8.03;;;21.90;99.90;;;;;;5087649;28;21036;-43
2022/08/17 06:16:08;;;;;;;8.90;8.10;;;21.90;99.90;;;;;;5087438;28;20536;-47
2022/08/17 06:18:57;;;;;;;8.90;8.00;;;22.00;99.90;;;;;;5085026;28;20473;-46
2022/08/17 06:21:23;;;;;;;8.30;7.50;;;22.10;99.90;;;;;;5078779;28;20474;-45
2022/08/17 06:24:35;;;;;;;8.23;7.47;;;22.20;99.90;;;;;;5090235;28;20785;-51
2022/08/17 06:27:10;;;;;;;9.17;7.80;;;22.30;99.90;;;;;;5059446;28;20463;-44
2022/08/17 06:29:40;;;;;;;9.17;8.27;;;22.40;99.90;;;;;;5091095;28;20489;-44
2022/08/17 06:32:08;;;;;;;9.07;7.40;;;22.40;99.90;;;;;;5091226;28;20421;-44
2022/08/17 06:34:36;;;;;;;10.23;7.77;;;22.50;99.90;;;;;;5090887;28;20423;-47
2022/08/17 06:37:26;;;;;;;7.53;6.93;;;22.50;99.90;;;;;;5090257;28;20948;-43
2022/08/17 06:40:20;;;;;;;8.30;7.50;;;22.50;99.90;;;;;;5082913;28;20434;-45
2022/08/17 06:42:49;;;;;;;8.13;7.43;;;22.50;99.90;;;;;;5089513;28;20508;-46
2022/08/17 06:45:34;;;;;;;7.90;7.10;;;22.50;99.90;;;;;;5090936;28;20458;-43
2022/08/17 06:48:14;;;;;;;8.53;7.33;;;22.50;99.90;;;;;;5090491;28;20464;-44
2022/08/17 06:51:17;;;;;;;8.40;7.60;;;22.50;99.90;;;;;;5090988;28;20521;-45
2022/08/17 06:54:04;;;;;;;8.97;8.07;;;22.50;99.90;;;;;;5083875;28;20528;-45
2022/08/17 06:56:43;;;;;;;7.37;6.77;;;22.50;99.90;;;;;;5090501;28;21207;-43
2022/08/17 06:59:17;;;;;;;8.40;7.80;;;22.50;99.90;;;;;;5090338;28;20414;-47
2022/08/17 07:01:45;;;;;;;10.07;7.90;;;22.60;99.90;;;;;;5090173;28;20862;-46
2022/08/17 07:04:25;;;;;;;11.03;7.70;;;22.60;99.90;;;;;;5080739;28;20439;-45
2022/08/17 07:06:57;;;;;;;8.30;7.50;;;22.70;99.90;;;;;;5090230;28;20430;-43
2022/08/17 07:09:36;;;;;;;7.80;7.20;;;22.70;99.90;;;;;;5092010;28;20429;-46
2022/08/17 07:12:16;;;;;;;8.17;7.37;;;22.80;99.90;;;;;;5090243;28;20808;-43
2022/08/17 07:15:03;;;;;;;8.00;7.20;;;22.80;99.90;;;;;;5090607;28;20426;-43
2022/08/17 07:17:29;;;;;;;7.90;7.20;;;22.80;99.90;;;;;;5089646;28;20837;-44
2022/08/17 07:20:07;;;;;;;8.97;7.90;;;22.90;99.90;;;;;;5089331;28;20433;-45
2022/08/17 07:22:57;;;;;;;9.10;7.47;;;22.90;99.90;;;;;;5088773;28;20469;-47
2022/08/17 07:25:24;;;;;;;7.47;6.80;;;23.00;99.90;;;;;;5090440;28;20483;-46
2022/08/17 07:27:52;;;;;;;10.07;7.20;;;23.00;99.90;;;;;;5089530;28;20458;-46
2022/08/17 07:30:31;;;;;;;8.43;7.50;;;23.00;99.90;;;;;;5090141;28;20435;-45
2022/08/17 07:33:11;;;;;;;8.20;7.50;;;23.00;99.90;;;;;;5089861;28;20422;-50
2022/08/17 07:35:40;;;;;;;7.70;7.10;;;23.10;99.90;;;;;;5081206;28;20774;-46
2022/08/17 07:38:18;;;;;;;7.27;6.27;;;23.10;99.90;;;;;;5089192;28;20422;-48
2022/08/17 07:41:06;;;;;;;6.77;6.17;;;23.20;99.90;;;;;;5089859;28;20425;-42
2022/08/17 07:43:41;;;;;;;7.13;6.50;;;23.20;99.90;;;;;;5090224;28;20423;-46
2022/08/17 07:49:08;;;;;;;6.70;6.00;;;23.40;99.90;;;;;;5088490;28;20426;-44
2022/08/17 07:51:51;;;;;;;10.53;6.63;;;23.50;99.90;;;;;;5089906;28;20430;-46
2022/08/17 07:54:40;;;;;;;6.47;5.97;;;23.60;99.90;;;;;;5089225;28;20425;-43
2022/08/17 07:57:09;;;;;;;7.07;6.37;;;23.70;99.90;;;;;;5089193;28;20442;-45
2022/08/17 07:59:41;;;;;;;6.57;5.97;;;23.90;99.90;;;;;;5089547;28;20437;-44
2022/08/17 08:02:16;;;;;;;7.17;6.57;;;23.90;99.90;;;;;;5089328;28;20515;-43
2022/08/17 08:04:48;;;;;;;6.90;5.87;;;24.00;99.90;;;;;;5088891;28;20445;-49
2022/08/17 08:07:17;;;;;;;6.53;5.90;;;24.10;99.90;;;;;;5088811;28;20770;-47
2022/08/17 08:10:10;;;;;;;6.33;5.83;;;24.10;99.90;;;;;;5089505;28;20938;-42
2022/08/17 08:12:47;;;;;;;7.80;6.30;;;24.10;99.90;;;;;;5089270;28;20932;-45
2022/08/17 08:15:38;;;;;;;6.80;6.20;;;24.10;99.90;;;;;;5088713;28;20433;-46
2022/08/17 08:18:20;;;;;;;6.00;5.50;;;24.10;99.90;;;;;;5088482;28;20846;-46
2022/08/17 08:20:54;;;;;;;7.47;5.93;;;24.20;99.90;;;;;;5088143;28;20427;-44
2022/08/17 08:23:38;;;;;;;6.83;6.10;;;24.30;99.90;;;;;;5088869;28;20636;-48
2022/08/17 08:26:32;;;;;;;8.90;6.40;;;24.30;99.90;;;;;;5088806;28;20559;-48
2022/08/17 08:29:29;;;;;;;7.20;6.60;;;24.40;99.90;;;;;;5089024;28;20415;-43
2022/08/17 08:32:16;;;;;;;7.73;6.97;;;24.50;99.90;;;;;;5076302;28;20529;-43
2022/08/17 08:34:56;;;;;;;9.00;6.70;;;24.60;99.90;;;;;;5088904;28;20449;-46
2022/08/17 08:37:40;;;;;;;9.23;6.60;;;24.70;99.90;;;;;;5088665;28;20454;-43
2022/08/17 08:40:07;;;;;;;7.63;6.90;;;24.90;99.90;;;;;;5088380;28;20423;-43
2022/08/17 08:43:02;;;;;;;7.00;6.40;;;24.90;99.90;;;;;;5088656;28;20461;-44
2022/08/17 08:45:40;;;;;;;7.77;7.00;;;25.10;99.90;;;;;;5088131;28;20990;-43
2022/08/17 08:48:11;;;;;;;7.60;7.00;;;25.10;99.90;;;;;;5088162;28;20428;-44
2022/08/17 08:50:39;;;;;;;7.87;7.20;;;25.10;99.90;;;;;;5087953;28;20505;-42
2022/08/17 08:53:23;;;;;;;7.80;6.87;;;25.10;99.90;;;;;;5088567;28;20425;-45
2022/08/17 08:56:05;;;;;;;8.23;7.37;;;25.10;99.90;;;;;;5088474;28;20429;-43
2022/08/17 08:58:58;;;;;;;8.43;7.73;;;25.10;99.90;;;;;;5083689;28;20425;-44
2022/08/17 09:01:30;;;;;;;8.10;7.40;;;25.10;99.90;;;;;;5077794;28;20431;-45
2022/08/17 09:04:11;;;;;;;8.23;7.53;;;25.10;99.90;;;;;;5086996;28;20437;-43
2022/08/17 09:06:45;;;;;;;9.77;7.70;;;25.10;99.90;;;;;;5086618;28;20821;-43
2022/08/17 09:09:40;;;;;;;9.10;8.40;;;25.20;99.90;;;;;;5087368;28;20440;-44
2022/08/17 09:12:35;;;;;;;9.20;7.80;;;25.20;99.90;;;;;;5080291;28;20978;-45
2022/08/17 09:15:16;;;;;;;7.83;7.17;;;25.20;99.90;;;;;;5088269;28;20480;-46
2022/08/17 09:18:05;;;;;;;8.00;7.30;;;25.20;99.90;;;;;;5087592;28;20428;-44
2022/08/17 09:20:51;;;;;;;8.40;7.60;;;25.20;99.90;;;;;;5086134;28;21062;-44
2022/08/17 09:23:41;;;;;;;9.17;8.30;;;25.10;99.90;;;;;;5088285;28;20458;-44
2022/08/17 09:26:16;;;;;;;10.13;8.87;;;25.10;99.90;;;;;;5088199;28;20426;-44
2022/08/17 09:28:51;;;;;;;9.80;8.57;;;25.00;99.90;;;;;;5087384;28;20471;-48
2022/08/17 09:31:24;;;;;;;8.97;8.17;;;24.90;99.90;;;;;;5088316;28;20452;-44
2022/08/17 09:33:54;;;;;;;10.13;9.10;;;24.80;99.90;;;;;;5088223;28;20863;-45
2022/08/17 09:36:53;;;;;;;9.57;8.50;;;24.80;99.90;;;;;;5087804;28;20431;-44
2022/08/17 09:39:29;;;;;;;12.67;8.80;;;24.80;99.90;;;;;;5070920;28;20418;-42
2022/08/17 09:42:02;;;;;;;11.37;9.63;;;24.70;99.90;;;;;;5088038;28;20450;-44
2022/08/17 09:44:50;;;;;;;9.80;8.90;;;24.70;99.90;;;;;;5087970;28;20426;-46
2022/08/17 09:47:31;;;;;;;10.33;9.33;;;24.60;99.90;;;;;;5087321;28;20417;-44
2022/08/17 09:50:12;;;;;;;12.87;9.13;;;24.60;99.90;;;;;;5088034;28;20525;-45
2022/08/17 09:52:38;;;;;;;9.60;8.70;;;24.60;99.90;;;;;;5087055;28;20597;-46
2022/08/17 09:55:04;;;;;;;9.73;8.93;;;24.60;99.90;;;;;;5087516;28;20776;-45
2022/08/17 09:57:51;;;;;;;13.10;9.83;;;24.60;99.90;;;;;;5089542;28;20585;-41
2022/08/17 10:00:26;;;;;;;10.30;9.40;;;24.60;99.90;;;;;;5084133;28;20461;-49
2022/08/17 10:03:19;;;;;;;11.63;10.53;;;24.60;99.90;;;;;;5085147;28;20483;-43
2022/08/17 10:06:09;;;;;;;10.90;9.80;;;24.60;99.90;;;;;;5090068;28;20430;-45
2022/08/17 10:08:41;;;;;;;10.30;9.37;;;24.60;99.90;;;;;;5091122;28;20448;-44
2022/08/17 10:14:49;;;;;;;11.00;10.00;;;24.50;99.90;;;;;;5090789;28;20422;-41
2022/08/17 10:17:29;;;;;;;11.10;10.10;;;24.50;99.90;;;;;;5090343;28;20434;-43
2022/08/17 10:20:15;;;;;;;11.17;10.17;;;24.60;99.90;;;;;;5090442;28;20465;-47
2022/08/17 10:26:13;;;;;;;11.13;10.13;;;24.50;99.90;;;;;;5091370;28;20496;-47
2022/08/17 10:29:00;;;;;;;11.20;10.10;;;24.60;99.90;;;;;;5090949;28;20840;-42
2022/08/17 10:31:41;;;;;;;12.80;11.70;;;24.60;99.90;;;;;;5091028;28;20418;-45
2022/08/17 10:34:33;;;;;;;11.50;10.50;;;24.60;99.90;;;;;;5090172;28;20425;-43
2022/08/17 10:37:20;;;;;;;11.60;10.40;;;24.50;99.90;;;;;;5090349;28;20478;-44
2022/08/17 10:40:14;;;;;;;12.63;11.50;;;24.40;99.90;;;;;;5089851;28;20430;-41
2022/08/17 10:43:25;;;;;;;12.57;11.43;;;24.40;99.90;;;;;;5090934;28;20797;-42
2022/08/17 10:46:32;;;;;;;12.73;11.53;;;24.30;99.90;;;;;;5090987;28;20465;-43
2022/08/17 10:49:16;;;;;;;13.10;11.57;;;24.20;99.90;;;;;;5090917;28;20787;-45
2022/08/17 10:51:46;;;;;;;14.50;11.33;;;24.20;99.90;;;;;;5090909;28;20455;-47
2022/08/17 10:54:24;;;;;;;12.87;11.67;;;24.10;99.90;;;;;;5091034;28;20907;-47
2022/08/17 10:56:55;;;;;;;13.50;11.30;;;24.20;99.90;;;;;;5090069;28;20871;-47
2022/08/17 10:59:33;;;;;;;13.43;12.33;;;24.10;99.90;;;;;;5090805;28;20458;-42
2022/08/17 11:02:47;;;;;;;12.33;11.13;;;24.10;99.90;;;;;;5090576;28;20998;-41
2022/08/17 11:05:16;;;;;;;14.90;13.50;;;24.10;99.90;;;;;;5089422;28;20482;-44
2022/08/17 11:08:00;;;;;;;14.33;12.90;;;24.10;99.90;;;;;;5089934;28;20479;-44
2022/08/17 11:11:00;;;;;;;14.83;13.33;;;24.10;99.90;;;;;;5089923;28;20430;-45
2022/08/17 11:13:31;;;;;;;15.00;13.63;;;24.10;99.90;;;;;;5090382;28;21072;-44
2022/08/17 11:16:18;;;;;;;14.23;12.73;;;24.00;99.90;;;;;;5090555;28;20819;-44
2022/08/17 11:18:51;;;;;;;14.50;13.20;;;24.00;99.90;;;;;;5089749;28;20681;-44
2022/08/17 11:21:36;;;;;;;16.37;14.90;;;23.90;99.90;;;;;;5089297;28;20433;-43
2022/08/17 11:24:11;;;;;;;18.20;15.70;;;23.90;99.90;;;;;;5090270;28;20426;-46
2022/08/17 11:26:45;;;;;;;18.03;16.17;;;23.80;99.90;;;;;;5089967;28;20483;-42
2022/08/17 11:29:28;;;;;;;18.40;16.80;;;23.80;99.90;;;;;;5090207;28;20790;-48
2022/08/17 11:32:01;;;;;;;17.33;15.53;;;23.80;99.90;;;;;;5078414;28;20483;-44
2022/08/17 11:34:30;;;;;;;17.17;15.70;;;23.70;99.90;;;;;;5090008;28;20422;-43
2022/08/17 11:37:10;;;;;;;18.27;16.67;;;23.70;99.90;;;;;;5089748;28;20434;-44
2022/08/17 11:40:08;;;;;;;17.03;15.23;;;23.80;99.90;;;;;;5089997;28;20778;-43
2022/08/17 11:42:37;;;;;;;19.43;17.73;;;23.80;99.90;;;;;;5089694;28;20465;-44
2022/08/17 11:45:24;;;;;;;16.97;15.43;;;23.80;99.90;;;;;;5089788;28;20426;-44
2022/08/17 11:53:37;;;;;;;17.90;16.30;;;23.80;99.90;;;;;;5089978;28;20802;-43
2022/08/17 11:56:39;;;;;;;20.57;18.77;;;23.80;99.90;;;;;;5089912;28;20429;-44
2022/08/17 11:59:38;;;;;;;19.60;17.87;;;23.80;99.90;;;;;;5089268;28;20192;-43
2022/08/17 12:02:18;;;;;;;20.03;18.23;;;23.80;99.90;;;;;;5089219;28;20796;-43
2022/08/17 12:05:20;;;;;;;19.57;17.87;;;23.90;99.90;;;;;;5089328;28;20504;-42
2022/08/17 12:08:10;;;;;;;21.10;19.23;;;23.80;99.90;;;;;;5088921;28;20418;-46
2022/08/17 12:10:52;;;;;;;21.53;19.43;;;23.90;99.90;;;;;;5089197;28;20513;-46
2022/08/17 12:13:18;;;;;;;20.83;19.00;;;23.90;99.90;;;;;;5089428;28;20832;-43
2022/08/17 12:15:48;;;;;;;22.20;20.23;;;23.90;99.90;;;;;;5089263;28;20434;-42
2022/08/17 12:18:29;;;;;;;19.23;17.30;;;24.00;99.90;;;;;;5088709;28;20426;-45
2022/08/17 12:21:36;;;;;;;22.07;19.80;;;24.10;99.90;;;;;;5087463;28;20426;-44
2022/08/17 12:24:12;;;;;;;20.17;18.10;;;24.20;99.90;;;;;;5089227;28;20533;-42
2022/08/17 12:26:38;;;;;;;23.70;21.50;;;24.30;99.90;;;;;;5088385;28;20449;-45
2022/08/17 12:29:13;;;;;;;20.03;18.40;;;24.40;99.90;;;;;;5088977;28;20890;-42
2022/08/17 12:31:49;;;;;;;21.80;19.77;;;24.40;99.90;;;;;;5088824;28;20515;-44
2022/08/17 12:34:26;;;;;;;22.90;20.50;;;24.60;99.90;;;;;;5088892;28;20917;-43
2022/08/17 12:37:00;;;;;;;26.70;24.30;;;24.60;99.90;;;;;;5088376;28;20519;-44
2022/08/17 12:39:28;;;;;;;23.97;20.93;;;24.70;99.90;;;;;;5088902;28;20426;-42
2022/08/17 12:41:56;;;;;;;24.83;22.63;;;24.60;99.90;;;;;;5088225;28;20466;-47
2022/08/17 12:44:25;;;;;;;25.30;23.07;;;24.50;99.90;;;;;;5088928;28;20426;-48
2022/08/17 12:47:05;;;;;;;21.07;19.10;;;24.50;99.90;;;;;;5087894;28;20505;-43
2022/08/17 12:49:38;;;;;;;25.90;23.60;;;24.60;99.90;;;;;;5088757;28;20422;-43
2022/08/17 12:52:12;;;;;;;22.93;20.73;;;24.70;99.90;;;;;;5088261;28;20430;-43
2022/08/17 12:54:58;;;;;;;21.83;19.60;;;24.70;99.90;;;;;;5088553;28;20429;-41
2022/08/17 12:57:42;;;;;;;24.97;22.37;;;24.80;99.90;;;;;;5087851;28;20430;-42
2022/08/17 13:00:16;;;;;;;24.73;21.23;;;24.90;99.90;;;;;;5088708;28;20452;-42
2022/08/17 13:02:52;;;;;;;22.73;20.33;;;25.00;99.90;;;;;;5088049;28;20466;-42
2022/08/17 13:05:29;;;;;;;26.93;24.40;;;25.30;99.90;;;;;;5088419;28;20503;-44
2022/08/17 13:07:57;;;;;;;25.90;23.53;;;25.50;99.90;;;;;;5087597;28;20456;-47
2022/08/17 13:10:23;;;;;;;23.47;21.50;;;25.70;99.90;;;;;;5088355;28;20444;-42
2022/08/17 13:12:51;;;;;;;29.40;26.10;;;25.80;99.90;;;;;;5088315;28;20803;-44
2022/08/17 13:15:40;;;;;;;25.83;23.50;;;25.90;99.90;;;;;;5088357;28;20237;-43
2022/08/17 13:18:27;;;;;;;26.40;24.00;;;26.10;99.90;;;;;;5087641;28;20491;-45
2022/08/17 13:20:57;;;;;;;31.00;28.20;;;26.20;99.90;;;;;;5087036;28;20822;-45
2022/08/17 13:23:25;;;;;;;25.87;23.17;;;26.30;99.90;;;;;;5088044;28;20478;-45
2022/08/17 13:25:55;;;;;;;27.50;25.10;;;26.30;99.90;;;;;;5088410;28;20433;-44
2022/08/17 13:28:26;;;;;;;32.63;29.37;;;26.40;99.90;;;;;;5087716;28;20521;-43
2022/08/17 13:30:52;;;;;;;26.17;23.70;;;26.40;99.90;;;;;;5088267;28;20422;-44
2022/08/17 13:33:29;;;;;;;31.47;28.47;;;26.40;99.90;;;;;;5091302;28;21164;-48
2022/08/17 13:36:06;;;;;;;26.83;24.27;;;26.50;99.90;;;;;;5091809;28;20434;-43
2022/08/17 13:38:45;;;;;;;24.90;22.80;;;26.50;99.90;;;;;;5091816;28;20487;-45
2022/08/17 13:41:36;;;;;;;30.73;27.83;;;26.60;99.90;;;;;;5092059;28;20418;-43